National Weather Service United States Department of Commerce

 

Aviation Weather Center TAFs Radar Soundings/Model Data Soaring
NWS Wichita Home Page Hazardous Weather Outlook NWS Graphical Forecasts

 

Wichita (ICT)
Hutchinson (HUT)
Tactical Decision Aid
 
Tactical Decision Aid
 

 
000
FTUS43 KICT 242339
TAFICT
TAF
KICT 242339Z 2500/2524 17015G25KT P6SM FEW200
FM250500 17016G24KT P6SM FEW250 WS020/19045KT
FM251300 19010KT P6SM SCT200
FM251900 36015KT P6SM FEW100
FM252300 01016KT P6SM SCT070=
 
000
FTUS43 KICT 242339
TAFHUT
TAF
KHUT 242339Z 2500/2524 17017KT P6SM FEW250
FM250400 17017G25KT P6SM FEW250 WS020/18045KT
FM251300 15010KT P6SM SCT200
FM251800 36015KT P6SM FEW100=
Salina (SLN) Russell (RSL)
Tactical Decision Aid
Tactical Decision Aid

 
000
FTUS43 KICT 242339
TAFSLN
TAF
KSLN 242339Z 2500/2524 16015G23KT P6SM FEW200
FM250300 17017G26KT P6SM FEW200 WS020/18050KT
FM251100 20011KT P6SM SCT200 WS020/22040KT
FM251700 36016G24KT P6SM SCT180
FM252100 36016G24KT P6SM BKN060=

 
000
FTUS43 KICT 242339
TAFRSL
TAF
KRSL 242339Z 2500/2524 18015G23KT P6SM FEW200
FM250400 20014G22KT P6SM SCT250 WS020/20045KT
FM250600 24010KT P6SM SCT250
FM251600 01019G27KT P6SM BKN040
FM252300 02015G23KT P6SM SCT060=
Chanute (CNU) Great Bend (GBD)
Tactical Decision Aid
Tactical Decision Aid

 
000
FTUS43 KICT 242339
TAFCNU
TAF
KCNU 242339Z 2500/2524 16014KT P6SM SKC
FM251000 17010KT P6SM FEW250 WS020/20040KT
FM251300 18009KT P6SM FEW250
FM252300 36015KT P6SM FEW100=

 
000
FTUS43 KICT 242339
TAFGBD
TAF
KGBD 242339Z 2500/2524 18018KT P6SM FEW200
FM250400 18017KT P6SM FEW250 WS020/19045KT
FM251000 19012KT P6SM SCT200
FM251700 01018G26KT P6SM SCT060
FM252100 01018G26KT P6SM BKN050=
 
NWS Wichita Aviation Forecast Discussion

 

 

IMPORTANT: This page is a tool to help pilots better visualize weather and weather-related hazards, and is not a substitute for a weather briefing obtained from a Flight Service Station (1-800-WXBRIEF). The information contained here does not meet the FAA requirements for a pre-flight weather brief. Therefore, it is important that pilots call and obtain a briefing from an FAA Flight Service Specialist.